createdAt,value
2018-07-20T00:00:03.440Z,64.18
2018-07-20T00:01:18.352Z,64.18
2018-07-20T00:02:33.036Z,64.28
2018-07-20T00:03:47.502Z,64.08
2018-07-20T00:05:02.314Z,63.5
2018-07-20T00:06:17.247Z,63.21
2018-07-20T00:07:31.939Z,63.41
2018-07-20T00:08:47.171Z,63.41
2018-07-20T00:10:02.151Z,63.5
2018-07-20T00:11:16.666Z,63.41
2018-07-20T00:12:31.629Z,63.79
2018-07-20T00:13:46.642Z,63.7
2018-07-20T00:15:01.338Z,63.21
2018-07-20T00:16:15.816Z,64.18
2018-07-20T00:17:30.334Z,64.18
2018-07-20T00:18:45.077Z,64.28
2018-07-20T00:19:59.634Z,64.28
2018-07-20T00:21:14.095Z,65.91
2018-07-20T00:22:28.740Z,66.88
2018-07-20T00:23:43.229Z,67.74
2018-07-20T00:24:58.039Z,66.55
2018-07-20T00:26:12.229Z,65.5
2018-07-20T00:27:26.660Z,65.14
2018-07-20T00:28:40.787Z,65.05
2018-07-20T00:29:55.482Z,65.53
2018-07-20T00:31:09.937Z,65.43
2018-07-20T00:32:24.665Z,64.28
2018-07-20T00:33:38.868Z,65.05
2018-07-20T00:34:53.297Z,64.86
2018-07-20T00:36:08.360Z,64.76
2018-07-20T00:37:23.057Z,68.71
2018-07-20T00:38:37.269Z,67.81
2018-07-20T00:39:51.689Z,68.58
2018-07-20T00:41:05.508Z,68.1
2018-07-20T00:42:20.389Z,70.31
2018-07-20T00:43:34.836Z,70.18
2018-07-20T00:44:49.577Z,69.02
2018-07-20T00:46:04.531Z,68.16
2018-07-20T00:47:19.300Z,66.46
2018-07-20T00:48:33.477Z,65.11
2018-07-20T00:49:47.692Z,65.2
2018-07-20T00:51:02.168Z,64.63
2018-07-20T00:52:16.849Z,64.05
2018-07-20T00:53:31.383Z,64.82
2018-07-20T00:54:45.572Z,65.01
2018-07-20T00:56:00.074Z,64.15
2018-07-20T00:57:14.499Z,64.15
2018-07-20T00:58:28.734Z,64.25
2018-07-20T00:59:43.167Z,64.15
2018-07-20T01:00:58.129Z,64.28
2018-07-20T01:02:12.681Z,64.08
2018-07-20T01:03:27.411Z,64.37
2018-07-20T01:04:42.109Z,64.28
2018-07-20T01:05:57.039Z,64.08
2018-07-20T01:07:11.544Z,63.85
2018-07-20T01:08:25.742Z,64.15
2018-07-20T01:09:40.745Z,64.25
2018-07-20T01:10:55.771Z,64.95
2018-07-20T01:12:10.926Z,65.59
2018-07-20T01:13:24.853Z,68.38
2018-07-20T01:14:38.784Z,70.5
2018-07-20T01:15:53.479Z,72.3
2018-07-20T01:17:07.921Z,73.65
2018-07-20T01:18:21.883Z,74.19
2018-07-20T01:19:36.052Z,74.67
2018-07-20T01:20:51.011Z,75.82
2018-07-20T01:22:06.277Z,76.36
2018-07-20T01:23:20.452Z,77.33
2018-07-20T01:24:35.422Z,78.38
2018-07-20T01:25:49.851Z,78.06
2018-07-20T01:27:03.839Z,78.15
2018-07-20T01:28:18.281Z,77.86
2018-07-20T01:29:32.722Z,77.86
2018-07-20T01:30:47.225Z,77.29
2018-07-20T01:32:02.238Z,76.9
2018-07-20T01:33:16.753Z,77.96
2018-07-20T01:34:31.446Z,77.19
2018-07-20T01:35:45.917Z,73.73
2018-07-20T01:37:00.424Z,72.9
2018-07-20T01:38:15.120Z,71.65
2018-07-20T01:39:30.132Z,70.5
2018-07-20T01:40:44.223Z,70.59
2018-07-20T01:41:58.658Z,69.67
2018-07-20T01:43:13.808Z,69.67
2018-07-20T01:44:28.282Z,69.67
2018-07-20T01:45:42.938Z,69.47
2018-07-20T01:46:57.370Z,69.28
2018-07-20T01:48:11.694Z,69.57
2018-07-20T01:49:25.049Z,69.57
2018-07-20T01:50:38.973Z,69.76
2018-07-20T01:51:53.901Z,69.38
2018-07-20T01:53:08.371Z,68.7
2018-07-20T01:54:22.533Z,68.6
2018-07-20T01:55:37.339Z,68.8
2018-07-20T01:56:51.658Z,68.51
2018-07-20T01:58:06.173Z,68.6
2018-07-20T01:59:21.148Z,68.8
2018-07-20T02:00:35.554Z,68.51
2018-07-20T02:01:49.980Z,68.8
2018-07-20T02:03:04.530Z,68.8
2018-07-20T02:04:19.005Z,68.9
2018-07-20T02:05:34.215Z,68.9
2018-07-20T02:06:48.895Z,69.18
2018-07-20T02:08:02.887Z,68.9
2018-07-20T02:09:16.819Z,69.18
2018-07-20T02:10:31.747Z,68.8
2018-07-20T02:11:46.023Z,68.99
2018-07-20T02:13:00.491Z,68.99
2018-07-20T02:14:15.026Z,68.8
2018-07-20T02:15:29.756Z,68.51
2018-07-20T02:16:43.681Z,68.7
2018-07-20T02:17:58.344Z,68.32
2018-07-20T02:19:12.967Z,68.9
2018-07-20T02:20:26.937Z,68.7
2018-07-20T02:21:41.372Z,68.8
2018-07-20T02:22:56.086Z,68.9
2018-07-20T02:24:10.831Z,68.9
2018-07-20T02:25:25.026Z,68.8
2018-07-20T02:26:39.217Z,68.9
2018-07-20T02:27:53.362Z,69.18
2018-07-20T02:29:08.328Z,68.51
2018-07-20T02:30:22.257Z,67.83
2018-07-20T02:31:36.724Z,68.32
2018-07-20T02:32:51.401Z,68.8
2018-07-20T02:34:06.121Z,68.51
2018-07-20T02:35:20.556Z,68.6
2018-07-20T02:36:34.757Z,68.41
2018-07-20T02:37:49.473Z,68.22
2018-07-20T02:39:04.284Z,68.13
2018-07-20T02:40:19.078Z,68.22
2018-07-20T02:41:33.797Z,68.6
2018-07-20T02:42:47.968Z,68.7
2018-07-20T02:44:01.646Z,68.8
2018-07-20T02:45:16.345Z,68.8
2018-07-20T02:46:30.800Z,68.9
2018-07-20T02:47:45.231Z,69.47
2018-07-20T02:48:59.903Z,69.57
2018-07-20T02:50:14.637Z,69.09
2018-07-20T02:51:29.087Z,68.8
2018-07-20T02:52:44.061Z,69.28
2018-07-20T02:53:59.033Z,69.38
2018-07-20T02:55:13.476Z,69.38
2018-07-20T02:56:28.196Z,69.38
2018-07-20T02:57:42.623Z,69.47
2018-07-20T02:58:57.315Z,69.76
2018-07-20T03:00:11.357Z,69.38
2018-07-20T03:01:25.270Z,69.92
2018-07-20T03:02:39.490Z,69.63
2018-07-20T03:03:53.938Z,69.67
2018-07-20T03:05:08.511Z,69.53
2018-07-20T03:06:23.849Z,69.57
2018-07-20T03:07:38.293Z,70.24
2018-07-20T03:08:52.823Z,70.92
2018-07-20T03:10:06.857Z,71.69
2018-07-20T03:11:21.817Z,73.99
2018-07-20T03:12:36.540Z,74.54
2018-07-20T03:13:49.978Z,73.86
2018-07-20T03:15:03.921Z,73.67
2018-07-20T03:16:18.273Z,73.09
2018-07-20T03:17:32.773Z,73.09
2018-07-20T03:18:47.465Z,73
2018-07-20T03:20:01.885Z,73.28
2018-07-20T03:21:16.445Z,72.32
2018-07-20T03:22:31.102Z,72.23
2018-07-20T03:23:45.725Z,72.71
2018-07-20T03:25:00.161Z,72.52
2018-07-20T03:26:14.597Z,72.23
2018-07-20T03:27:29.535Z,72.23
2018-07-20T03:28:43.804Z,71.94
2018-07-20T03:29:58.495Z,72.23
2018-07-20T03:31:13.415Z,71.75
2018-07-20T03:32:33.207Z,71.78
2018-07-20T03:33:48.177Z,72.8
2018-07-20T03:35:02.609Z,72.8
2018-07-20T03:36:16.971Z,72.71
2018-07-20T03:37:31.457Z,72.71
2018-07-20T03:38:45.909Z,72.9
2018-07-20T03:40:00.839Z,72.52
2018-07-20T03:41:15.496Z,73.28
2018-07-20T03:42:29.953Z,72.9
2018-07-20T03:43:44.431Z,73.28
2018-07-20T03:44:59.048Z,73.28
2018-07-20T03:46:13.452Z,73.67
2018-07-20T03:47:27.899Z,73.77
2018-07-20T03:48:42.589Z,74.44
2018-07-20T03:49:57.012Z,73.77
2018-07-20T03:51:11.709Z,73.96
2018-07-20T03:52:26.438Z,74.44
2018-07-20T03:53:40.626Z,74.15
2018-07-20T03:54:55.043Z,74.44
2018-07-20T03:56:09.743Z,74.54
2018-07-20T03:57:24.516Z,74.19
2018-07-20T03:58:39.046Z,73.9
2018-07-20T03:59:53.345Z,73.42
2018-07-20T04:01:07.788Z,73.32
2018-07-20T04:02:22.663Z,73.03
2018-07-20T04:03:37.674Z,72.17
2018-07-20T04:04:52.213Z,70.37
2018-07-20T04:06:06.442Z,68.9
2018-07-20T04:07:21.354Z,68.04
2018-07-20T04:08:36.125Z,67.68
2018-07-20T04:09:50.924Z,67.14
2018-07-20T04:11:05.219Z,67.49
2018-07-20T04:12:20.181Z,67.3
2018-07-20T04:13:34.755Z,68.04
2018-07-20T04:14:49.283Z,68.13
2018-07-20T04:16:04.290Z,68.42
2018-07-20T04:17:18.863Z,68.42
2018-07-20T04:18:33.396Z,68.52
2018-07-20T04:19:47.898Z,68.23
2018-07-20T04:21:02.401Z,68.23
2018-07-20T04:22:17.204Z,68.04
2018-07-20T04:23:31.900Z,67.94
2018-07-20T04:24:46.889Z,67.84
2018-07-20T04:26:01.377Z,67.74
2018-07-20T04:27:15.832Z,67.68
2018-07-20T04:28:29.904Z,67
2018-07-20T04:29:44.373Z,66.43
2018-07-20T04:30:58.836Z,66.62
2018-07-20T04:32:13.823Z,66.52
2018-07-20T04:33:28.396Z,65.85
2018-07-20T04:34:42.613Z,65.17
2018-07-20T04:35:56.804Z,65.17
2018-07-20T04:37:11.789Z,65.37
2018-07-20T04:38:25.748Z,64.72
2018-07-20T04:39:40.181Z,64.34
2018-07-20T04:40:55.140Z,64.05
2018-07-20T04:42:09.630Z,64.82
2018-07-20T04:43:24.968Z,64.15
2018-07-20T04:44:39.717Z,64.15
2018-07-20T04:45:54.157Z,63.37
2018-07-20T04:47:08.596Z,62.92
2018-07-20T04:48:23.513Z,63.02
2018-07-20T04:49:38.472Z,62.73
2018-07-20T04:50:52.942Z,62.63
2018-07-20T04:52:07.160Z,62.15
2018-07-20T04:53:22.378Z,61.6
2018-07-20T04:54:36.846Z,61.22
2018-07-20T04:55:51.516Z,61.12
2018-07-20T04:57:05.988Z,59.6
2018-07-20T04:58:20.903Z,57.54
2018-07-20T04:59:35.826Z,55.66
2018-07-20T05:00:50.509Z,55.68
2018-07-20T05:02:04.990Z,55.98
2018-07-20T05:03:19.718Z,56.52
2018-07-20T05:04:34.733Z,56.79
2018-07-20T05:05:48.798Z,55.73
2018-07-20T05:07:04.029Z,55.49
2018-07-20T05:08:18.988Z,55.2
2018-07-20T05:09:33.490Z,54.59
2018-07-20T05:10:47.761Z,53.17
2018-07-20T05:12:02.514Z,52.83
2018-07-20T05:13:17.217Z,51.5
2018-07-20T05:14:31.727Z,50.65
2018-07-20T05:15:46.731Z,50.09
2018-07-20T05:17:01.185Z,48.88
2018-07-20T05:18:15.370Z,49.46
2018-07-20T05:19:30.053Z,51.33
2018-07-20T05:20:45.193Z,52.18
2018-07-20T05:21:59.889Z,53.61
2018-07-20T05:23:13.590Z,54.62
2018-07-20T05:24:28.533Z,55.27
2018-07-20T05:25:42.481Z,55.43
2018-07-20T05:26:56.913Z,55.43
2018-07-20T05:28:11.114Z,56.98
2018-07-20T05:29:25.235Z,57.34
2018-07-20T05:30:39.747Z,56.95
2018-07-20T05:31:53.683Z,56.76
2018-07-20T05:33:08.469Z,56.98
2018-07-20T05:34:23.166Z,56.5
2018-07-20T05:35:38.070Z,55.56
2018-07-20T05:36:52.561Z,55.3
2018-07-20T05:38:07.180Z,54.84
2018-07-20T05:39:22.273Z,54.64
2018-07-20T05:40:36.398Z,54.74
2018-07-20T05:41:50.627Z,54.74
2018-07-20T05:43:04.598Z,54.96
2018-07-20T05:44:19.044Z,54.84
2018-07-20T05:45:34.163Z,54.58
2018-07-20T05:46:49.095Z,54.86
2018-07-20T05:48:04.075Z,54.84
2018-07-20T05:49:19.262Z,54.77
2018-07-20T05:50:34.060Z,54.67
2018-07-20T05:51:48.526Z,53.7
2018-07-20T05:53:02.992Z,54.55
2018-07-20T05:54:17.719Z,54.16
2018-07-20T05:55:32.413Z,54.38
2018-07-20T05:56:46.608Z,54.58
2018-07-20T05:58:01.077Z,53.89
2018-07-20T05:59:15.796Z,54.58
2018-07-20T06:00:30.690Z,53.7
2018-07-20T06:01:45.388Z,53.61
2018-07-20T06:02:59.849Z,53.51
2018-07-20T06:04:14.619Z,53.22
2018-07-20T06:05:29.120Z,53.22
2018-07-20T06:06:43.759Z,53.31
2018-07-20T06:07:58.813Z,52.54
2018-07-20T06:09:13.283Z,52.73
2018-07-20T06:10:27.754Z,53.12
2018-07-20T06:11:42.695Z,52.93
2018-07-20T06:12:56.660Z,52.64
2018-07-20T06:14:11.269Z,51.76
2018-07-20T06:15:25.639Z,51.98
2018-07-20T06:16:40.254Z,51.89
2018-07-20T06:17:55.457Z,52.08
2018-07-20T06:19:10.819Z,51.4
2018-07-20T06:20:25.935Z,51.47
2018-07-20T06:21:40.575Z,51.86
2018-07-20T06:22:55.387Z,50.92
2018-07-20T06:24:09.949Z,51.69
2018-07-20T06:25:24.707Z,51.57
2018-07-20T06:26:39.645Z,51.47
2018-07-20T06:27:54.693Z,51.18
2018-07-20T06:29:08.908Z,51.86
2018-07-20T06:30:23.658Z,52.06
2018-07-20T06:31:38.446Z,51.57
2018-07-20T06:32:52.942Z,51.28
2018-07-20T06:34:06.928Z,51.86
2018-07-20T06:35:21.157Z,52.06
2018-07-20T06:36:35.913Z,51.96
2018-07-20T06:37:50.832Z,51.86
2018-07-20T06:39:04.820Z,51.86
2018-07-20T06:40:19.339Z,52.12
2018-07-20T06:41:33.564Z,51.96
2018-07-20T06:42:47.799Z,52.32
2018-07-20T06:44:02.591Z,52.22
2018-07-20T06:45:17.043Z,51.96
2018-07-20T06:46:32.346Z,51.86
2018-07-20T06:47:46.841Z,51.96
2018-07-20T06:49:01.347Z,51.45
2018-07-20T06:50:16.440Z,51.28
2018-07-20T06:51:31.249Z,51.76
2018-07-20T06:52:46.800Z,51.76
2018-07-20T06:54:01.327Z,51.76
2018-07-20T06:55:16.343Z,52.12
2018-07-20T06:56:31.131Z,52.25
2018-07-20T06:57:46.318Z,52.61
2018-07-20T06:59:00.850Z,52.22
2018-07-20T07:00:15.834Z,52.25
2018-07-20T07:01:30.318Z,51.76
2018-07-20T07:02:45.456Z,51.47
2018-07-20T07:04:00.180Z,51.47
2018-07-20T07:05:15.180Z,51.47
2018-07-20T07:06:29.919Z,51.57
2018-07-20T07:07:44.695Z,51.86
2018-07-20T07:08:59.160Z,51.86
2018-07-20T07:10:13.367Z,51.96
2018-07-20T07:11:27.837Z,51.37
2018-07-20T07:12:43.010Z,51.57
2018-07-20T07:13:56.972Z,51.86
2018-07-20T07:15:11.404Z,51.86
2018-07-20T07:16:26.726Z,52.06
2018-07-20T07:17:41.737Z,52.34
2018-07-20T07:18:56.456Z,52.25
2018-07-20T07:20:11.262Z,52.15
2018-07-20T07:21:25.482Z,51.57
2018-07-20T07:22:40.110Z,51.67
2018-07-20T07:23:54.600Z,51.76
2018-07-20T07:25:08.804Z,51.86
2018-07-20T07:26:23.800Z,52.34
2018-07-20T07:27:39.054Z,52.12
2018-07-20T07:28:53.505Z,51.76
2018-07-20T07:30:08.241Z,51.86
2018-07-20T07:31:22.209Z,52.06
2018-07-20T07:32:36.754Z,51.96
2018-07-20T07:33:51.788Z,52.03
2018-07-20T07:35:06.246Z,52.22
2018-07-20T07:36:19.987Z,52.12
2018-07-20T07:37:33.676Z,51.86
2018-07-20T07:38:47.792Z,51.84
2018-07-20T07:40:02.296Z,52.15
2018-07-20T07:41:17.038Z,52.71
2018-07-20T07:42:31.274Z,52.51
2018-07-20T07:43:45.817Z,52.03
2018-07-20T07:45:00.571Z,52.06
2018-07-20T07:46:15.287Z,52.06
2018-07-20T07:47:30.291Z,52.93
2018-07-20T07:48:44.904Z,51.93
2018-07-20T07:49:59.660Z,52.54
2018-07-20T07:51:13.914Z,52.34
2018-07-20T07:52:28.643Z,53.02
2018-07-20T07:53:43.094Z,52.93
2018-07-20T07:54:58.171Z,52.93
2018-07-20T07:56:12.867Z,52.34
2018-07-20T07:57:28.047Z,52.06
2018-07-20T07:58:42.343Z,52.18
2018-07-20T07:59:57.053Z,51.98
2018-07-20T08:01:11.552Z,52.08
2018-07-20T08:02:26.012Z,51.96
2018-07-20T08:03:40.896Z,51.86
2018-07-20T08:04:55.342Z,52.83
2018-07-20T08:06:10.097Z,52.73
2018-07-20T08:07:25.090Z,52.73
2018-07-20T08:08:39.661Z,52.54
2018-07-20T08:09:54.277Z,52.15
2018-07-20T08:11:09.944Z,51.96
2018-07-20T08:12:24.978Z,52.28
2018-07-20T08:13:38.932Z,51.4
2018-07-20T08:14:53.683Z,51.89
2018-07-20T08:16:08.136Z,51.89
2018-07-20T08:17:22.834Z,51.98
2018-07-20T08:18:37.607Z,52.08
2018-07-20T08:19:52.392Z,51.89
2018-07-20T08:21:06.856Z,52.18
2018-07-20T08:22:21.339Z,52.18
2018-07-20T08:23:36.081Z,52.08
2018-07-20T08:24:50.625Z,51.79
2018-07-20T08:26:05.102Z,51.98
2018-07-20T08:27:19.837Z,52.28
2018-07-20T08:28:34.571Z,51.98
2018-07-20T08:29:48.810Z,51.98
2018-07-20T08:31:03.697Z,52.11
2018-07-20T08:32:18.055Z,51.53
2018-07-20T08:33:32.534Z,51.81
2018-07-20T08:34:46.842Z,51.62
2018-07-20T08:36:01.550Z,51.14
2018-07-20T08:37:16.298Z,50.77
2018-07-20T08:38:30.784Z,50.96
2018-07-20T08:39:45.245Z,51.06
2018-07-20T08:40:59.947Z,51.35
2018-07-20T08:42:14.254Z,51.06
2018-07-20T08:43:29.257Z,50.96
2018-07-20T08:44:43.694Z,51.16
2018-07-20T08:45:58.307Z,50.68
2018-07-20T08:47:12.767Z,50.68
2018-07-20T08:48:26.699Z,50.38
2018-07-20T08:49:40.380Z,49.82
2018-07-20T08:50:55.117Z,49.15
2018-07-20T08:52:10.076Z,49.34
2018-07-20T08:53:24.741Z,49.34
2018-07-20T08:54:39.787Z,49.34
2018-07-20T08:55:54.614Z,49.54
2018-07-20T08:57:09.079Z,49.27
2018-07-20T08:58:23.765Z,49.37
2018-07-20T08:59:38.785Z,49.27
2018-07-20T09:00:53.200Z,49.17
2018-07-20T09:02:08.002Z,49.56
2018-07-20T09:03:22.879Z,48.71
2018-07-20T09:04:38.024Z,48.61
2018-07-20T09:05:52.972Z,47.93
2018-07-20T09:07:07.213Z,48.03
2018-07-20T09:08:21.469Z,47.64
2018-07-20T09:09:35.937Z,47.56
2018-07-20T09:10:49.904Z,47.34
2018-07-20T09:12:04.935Z,46.88
2018-07-20T09:13:19.411Z,46.5
2018-07-20T09:14:34.370Z,46.3
2018-07-20T09:15:48.882Z,45.81
2018-07-20T09:17:03.736Z,45.52
2018-07-20T09:18:18.446Z,45.04
2018-07-20T09:19:33.360Z,44.86
2018-07-20T09:20:47.909Z,44.76
2018-07-20T09:22:02.735Z,44.57
2018-07-20T09:23:17.196Z,45.08
2018-07-20T09:24:31.879Z,45.18
2018-07-20T09:25:46.322Z,44.18
2018-07-20T09:27:00.939Z,44.59
2018-07-20T09:28:15.202Z,45.18
2018-07-20T09:29:29.810Z,44.69
2018-07-20T09:30:44.568Z,44.2
2018-07-20T09:31:58.438Z,43.71
2018-07-20T09:33:12.915Z,43.81
2018-07-20T09:34:27.643Z,44.2
2018-07-20T09:35:42.101Z,44.1
2018-07-20T09:36:56.665Z,44.71
2018-07-20T09:38:11.613Z,44.1
2018-07-20T09:39:26.327Z,43.74
2018-07-20T09:40:41.089Z,43.81
2018-07-20T09:41:55.503Z,43.44
2018-07-20T09:43:09.989Z,43.44
2018-07-20T09:44:24.948Z,43.84
2018-07-20T09:45:39.995Z,43.64
2018-07-20T09:46:54.463Z,43.84
2018-07-20T09:48:09.352Z,43.76
2018-07-20T09:49:24.136Z,43.57
2018-07-20T09:50:38.846Z,43.85
2018-07-20T09:51:53.046Z,43.85
2018-07-20T09:53:07.703Z,42.4
2018-07-20T09:54:22.852Z,42.79
2018-07-20T09:55:37.609Z,43.18
2018-07-20T09:56:51.555Z,43.18
2018-07-20T09:58:05.903Z,42.88
2018-07-20T09:59:20.692Z,42.49
2018-07-20T10:00:35.533Z,42.4
2018-07-20T10:01:49.717Z,41.71
2018-07-20T10:03:04.460Z,41.61
2018-07-20T10:04:18.685Z,41.03
2018-07-20T10:05:33.146Z,41.13
2018-07-20T10:06:47.310Z,40.93
2018-07-20T10:08:01.642Z,40.35
2018-07-20T10:09:16.365Z,40.55
2018-07-20T10:10:30.568Z,40.16
2018-07-20T10:11:44.776Z,39.86
2018-07-20T10:12:59.459Z,39.86
2018-07-20T10:14:13.697Z,39.88
2018-07-20T10:15:28.412Z,39.96
2018-07-20T10:16:43.128Z,39.69
2018-07-20T10:17:57.674Z,39.37
2018-07-20T10:19:13.004Z,39.57
2018-07-20T10:20:27.082Z,39.18
2018-07-20T10:21:42.060Z,39.08
2018-07-20T10:22:57.046Z,39.47
2018-07-20T10:24:11.710Z,39.47
2018-07-20T10:25:25.927Z,39.67
2018-07-20T10:26:41.104Z,39.08
2018-07-20T10:27:55.056Z,39.57
2018-07-20T10:29:09.974Z,39.86
2018-07-20T10:30:24.170Z,39.67
2018-07-20T10:31:38.655Z,39.57
2018-07-20T10:32:53.365Z,39.57
2018-07-20T10:34:08.275Z,38.69
2018-07-20T10:35:22.434Z,38.02
2018-07-20T10:36:37.512Z,37.83
2018-07-20T10:37:51.887Z,38.01
2018-07-20T10:39:06.438Z,38.02
2018-07-20T10:40:21.206Z,38.61
2018-07-20T10:41:35.958Z,39
2018-07-20T10:42:50.935Z,38.73
2018-07-20T10:44:05.246Z,38.82
2018-07-20T10:45:19.967Z,38.63
2018-07-20T10:46:34.213Z,39.12
2018-07-20T10:47:48.649Z,38.92
2018-07-20T10:49:03.650Z,39.02
2018-07-20T10:50:18.090Z,39.49
2018-07-20T10:51:32.550Z,39.59
2018-07-20T10:52:47.307Z,39.49
2018-07-20T10:54:01.935Z,39.78
2018-07-20T10:55:16.384Z,39.69
2018-07-20T10:56:30.831Z,39.78
2018-07-20T10:57:45.311Z,39.57
2018-07-20T10:58:59.538Z,39.67
2018-07-20T11:00:13.676Z,39.67
2018-07-20T11:01:27.566Z,39.76
2018-07-20T11:02:43.006Z,39.78
2018-07-20T11:03:57.223Z,39.08
2018-07-20T11:05:11.570Z,39.08
2018-07-20T11:06:26.519Z,39.57
2018-07-20T11:07:40.974Z,39.47
2018-07-20T11:08:55.533Z,38.61
2018-07-20T11:10:10.304Z,38.71
2018-07-20T11:11:24.353Z,38.9
2018-07-20T11:12:39.064Z,38.73
2018-07-20T11:13:53.599Z,37.93
2018-07-20T11:15:08.183Z,37.73
2018-07-20T11:16:22.623Z,37.63
2018-07-20T11:17:37.369Z,37.35
2018-07-20T11:18:51.608Z,36.88
2018-07-20T11:20:06.024Z,36.29
2018-07-20T11:21:20.775Z,36.1
2018-07-20T11:22:35.795Z,36.19
2018-07-20T11:23:50.564Z,36.39
2018-07-20T11:25:05.208Z,36.29
2018-07-20T11:26:19.677Z,36.58
2018-07-20T11:27:33.636Z,36.88
2018-07-20T11:28:47.906Z,36.68
2018-07-20T11:30:02.678Z,37.17
2018-07-20T11:31:17.216Z,36.98
2018-07-20T11:32:32.137Z,37.29
2018-07-20T11:33:46.850Z,37.77
2018-07-20T11:35:01.082Z,37.57
2018-07-20T11:36:15.907Z,37.38
2018-07-20T11:37:30.418Z,37.46
2018-07-20T11:38:44.500Z,37.37
2018-07-20T11:39:58.473Z,36.98
2018-07-20T11:41:13.292Z,37.07
2018-07-20T11:42:28.245Z,37.27
2018-07-20T11:43:42.196Z,37.37
2018-07-20T11:44:56.429Z,37.17
2018-07-20T11:46:10.781Z,37.09
2018-07-20T11:47:25.746Z,36.98
2018-07-20T11:48:40.719Z,36.6
2018-07-20T11:49:55.170Z,36.58
2018-07-20T11:51:10.116Z,36.58
2018-07-20T11:52:24.328Z,37.17
2018-07-20T11:53:38.274Z,37.54
2018-07-20T11:54:53.249Z,37.63
2018-07-20T11:56:07.704Z,37.73
2018-07-20T11:57:21.401Z,38.02
2018-07-20T11:58:36.358Z,37.62
2018-07-20T11:59:50.790Z,37.54
2018-07-20T12:01:05.864Z,37.25
2018-07-20T12:02:21.401Z,37.35
2018-07-20T12:03:35.998Z,37.25
2018-07-20T12:04:50.220Z,37.54
2018-07-20T12:06:04.791Z,37.54
2018-07-20T12:07:19.293Z,37.05
2018-07-20T12:08:33.790Z,36.86
2018-07-20T12:09:47.718Z,37.05
2018-07-20T12:11:01.995Z,37.05
2018-07-20T12:12:16.892Z,37.35
2018-07-20T12:13:31.828Z,37.05
2018-07-20T12:14:46.084Z,37.05
2018-07-20T12:16:00.906Z,36.98
2018-07-20T12:17:15.634Z,37.07
2018-07-20T12:18:30.013Z,37.25
2018-07-20T12:19:44.419Z,37.25
2018-07-20T12:20:59.179Z,37.45
2018-07-20T12:22:14.045Z,37.25
2018-07-20T12:23:28.547Z,37.05
2018-07-20T12:24:43.516Z,37.07
2018-07-20T12:25:57.760Z,36.88
2018-07-20T12:27:12.952Z,36.88
2018-07-20T12:28:27.975Z,37.17
2018-07-20T12:29:43.000Z,36.98
2018-07-20T12:30:57.476Z,37.07
2018-07-20T12:32:12.224Z,36.88
2018-07-20T12:33:26.447Z,36.98
2018-07-20T12:34:41.406Z,36.78
2018-07-20T12:35:55.895Z,36.68
2018-07-20T12:37:10.475Z,36.68
2018-07-20T12:38:25.168Z,36.58
2018-07-20T12:39:39.922Z,36.39
2018-07-20T12:40:54.675Z,36.31
2018-07-20T12:42:09.176Z,36.51
2018-07-20T12:43:23.698Z,36.29
2018-07-20T12:44:37.940Z,36.21
2018-07-20T12:45:52.363Z,36.41
2018-07-20T12:47:07.223Z,36.21
2018-07-20T12:48:21.619Z,36.6
2018-07-20T12:49:36.108Z,36.41
2018-07-20T12:50:50.337Z,36.41
2018-07-20T12:52:05.094Z,36.29
2018-07-20T12:53:19.479Z,36.29
2018-07-20T12:54:34.273Z,36
2018-07-20T12:55:48.994Z,36.19
2018-07-20T12:57:03.449Z,36.58
2018-07-20T12:58:18.047Z,36.39
2018-07-20T12:59:32.440Z,36.49
2018-07-20T13:00:46.898Z,36.29
2018-07-20T13:02:01.611Z,36.39
2018-07-20T13:03:16.414Z,36.39
2018-07-20T13:04:31.153Z,36.29
2018-07-20T13:05:45.634Z,36.58
2018-07-20T13:06:59.854Z,36.19
2018-07-20T13:08:14.333Z,35.9
2018-07-20T13:09:29.189Z,36.1
2018-07-20T13:10:43.672Z,36.19
2018-07-20T13:11:58.710Z,36.1
2018-07-20T13:13:14.558Z,36.19
2018-07-20T13:14:29.292Z,36.1
2018-07-20T13:15:43.976Z,36.1
2018-07-20T13:16:58.417Z,35.9
2018-07-20T13:18:13.456Z,36.08
2018-07-20T13:19:28.448Z,36.1
2018-07-20T13:20:42.995Z,36
2018-07-20T13:21:58.173Z,36.1
2018-07-20T13:23:13.336Z,35.9
2018-07-20T13:24:28.012Z,35.8
2018-07-20T13:25:43.020Z,35.43
2018-07-20T13:26:57.041Z,35.22
2018-07-20T13:28:11.988Z,35.24
2018-07-20T13:29:26.471Z,35.22
2018-07-20T13:30:40.994Z,35.31
2018-07-20T13:31:56.165Z,35.51
2018-07-20T13:33:12.937Z,35.41
2018-07-20T13:34:30.234Z,35.33
2018-07-20T13:35:47.393Z,35.43
2018-07-20T13:37:03.443Z,34.84
2018-07-20T13:38:20.949Z,34.94
2018-07-20T13:39:38.187Z,34.75
2018-07-20T13:40:55.400Z,34.94
2018-07-20T13:42:11.906Z,34.57
2018-07-20T13:43:26.567Z,35.04
2018-07-20T13:44:41.047Z,34.47
2018-07-20T13:45:55.769Z,34.57
2018-07-20T13:47:10.251Z,34.57
2018-07-20T13:48:24.945Z,34.57
2018-07-20T13:49:39.405Z,34.28
2018-07-20T13:50:53.094Z,34.18
2018-07-20T13:52:07.361Z,34.28
2018-07-20T13:53:21.857Z,34.08
2018-07-20T13:54:35.952Z,34.08
2018-07-20T13:55:50.716Z,33.79
2018-07-20T13:57:05.173Z,33.98
2018-07-20T13:58:19.906Z,33.98
2018-07-20T13:59:35.016Z,34.08
2018-07-20T14:00:49.766Z,34.18
2018-07-20T14:02:04.236Z,34.18
2018-07-20T14:03:18.701Z,34.18
2018-07-20T14:04:33.444Z,34.26
2018-07-20T14:05:47.963Z,34.06
2018-07-20T14:07:02.482Z,34.26
2018-07-20T14:08:17.203Z,34.18
2018-07-20T14:09:31.843Z,33.89
2018-07-20T14:10:46.303Z,34.08
2018-07-20T14:12:01.015Z,33.89
2018-07-20T14:13:15.496Z,33.98
2018-07-20T14:14:30.687Z,33.79
2018-07-20T14:15:44.882Z,33.89
2018-07-20T14:16:59.613Z,33.11
2018-07-20T14:18:14.115Z,33.4
2018-07-20T14:19:28.802Z,33.11
2018-07-20T14:20:43.730Z,33.4
2018-07-20T14:21:57.758Z,33.89
2018-07-20T14:23:12.546Z,33.01
2018-07-20T14:24:27.475Z,33.11
2018-07-20T14:25:42.038Z,33.11
2018-07-20T14:26:56.329Z,33.11
2018-07-20T14:28:11.334Z,33.79
2018-07-20T14:29:25.845Z,33.89
2018-07-20T14:30:40.593Z,33.79
2018-07-20T14:31:56.076Z,33.79
2018-07-20T14:33:11.015Z,33.89
2018-07-20T14:34:25.448Z,34
2018-07-20T14:35:39.784Z,33.69
2018-07-20T14:36:54.004Z,33.79
2018-07-20T14:38:09.044Z,33.5
2018-07-20T14:39:23.572Z,33.4
2018-07-20T14:40:38.551Z,33.01
2018-07-20T14:41:53.071Z,33.01
2018-07-20T14:43:07.947Z,33.11
2018-07-20T14:44:22.603Z,33.2
2018-07-20T14:45:37.390Z,33.2
2018-07-20T14:46:52.092Z,33.11
2018-07-20T14:48:07.069Z,33.2
2018-07-20T14:49:21.765Z,33.2
2018-07-20T14:50:36.474Z,33.2
2018-07-20T14:51:51.257Z,33.11
2018-07-20T14:53:06.147Z,33.11
2018-07-20T14:54:20.389Z,33.2
2018-07-20T14:55:34.993Z,33.02
2018-07-20T14:56:49.407Z,33.02
2018-07-20T14:58:04.133Z,33.11
2018-07-20T14:59:19.100Z,33.2
2018-07-20T15:00:36.238Z,33.11
2018-07-20T15:01:51.372Z,33.5
2018-07-20T15:03:05.872Z,33.79
2018-07-20T15:04:20.439Z,33.02
2018-07-20T15:05:35.045Z,33.22
2018-07-20T15:06:50.401Z,34
2018-07-20T15:08:04.969Z,33.9
2018-07-20T15:09:20.042Z,33.61
2018-07-20T15:10:34.974Z,33.31
2018-07-20T15:11:49.899Z,33.89
2018-07-20T15:13:04.887Z,33.89
2018-07-20T15:14:19.413Z,33.7
2018-07-20T15:15:33.637Z,32.82
2018-07-20T15:16:48.769Z,34.09
2018-07-20T15:18:03.109Z,33.61
2018-07-20T15:19:18.372Z,33.41
2018-07-20T15:20:32.863Z,33.41
2018-07-20T15:21:47.915Z,34.08
2018-07-20T15:23:01.927Z,33.98
2018-07-20T15:24:16.213Z,33.89
2018-07-20T15:25:30.660Z,33.79
2018-07-20T15:26:45.407Z,33.79
2018-07-20T15:27:59.889Z,33.89
2018-07-20T15:29:14.181Z,33.59
2018-07-20T15:30:28.399Z,33.98
2018-07-20T15:31:43.733Z,33.89
2018-07-20T15:32:58.294Z,33.87
2018-07-20T15:34:13.078Z,33.97
2018-07-20T15:35:27.336Z,34.26
2018-07-20T15:36:42.144Z,34.16
2018-07-20T15:37:56.435Z,34.26
2018-07-20T15:39:11.268Z,34.26
2018-07-20T15:40:25.338Z,34.55
2018-07-20T15:41:40.240Z,34.36
2018-07-20T15:42:54.452Z,34.36
2018-07-20T15:44:08.625Z,34.26
2018-07-20T15:45:23.159Z,34.24
2018-07-20T15:46:38.217Z,34.26
2018-07-20T15:47:54.891Z,34.34
2018-07-20T15:49:09.605Z,34.83
2018-07-20T15:50:23.603Z,34.92
2018-07-20T15:53:39.571Z,34.05
2018-07-20T15:54:55.115Z,34.24
2018-07-20T15:56:09.899Z,34.55
2018-07-20T15:57:24.469Z,34.55
2018-07-20T15:58:38.988Z,34.45
2018-07-20T15:59:54.494Z,34.36
2018-07-20T16:01:09.105Z,33.89
2018-07-20T16:02:24.193Z,33.97
2018-07-20T16:03:39.181Z,33.69
2018-07-20T16:04:53.222Z,33.69
2018-07-20T16:06:07.258Z,33.89
2018-07-20T16:07:22.128Z,33.79